Pagina principale
METAR-TAF:

METAR-TAF

Aeroporti :

Aeroporto di Francistown

Francistown, Botswana

latitudine: 21-13S, longitudine: 027-30E, altezza: 1001 m

Osservazione

Il bollettino è stato emesso 1 ora e 32 minuti fa, alle 19:00 UTC
Vento 6 kt da sud-est
Temperature 17°C
Umidità 39%
Pressione 1023 hPa
Visibilità 10 km o più
nessuna nube inferiore a 1500 m e nessun cumulonembo

METAR: FBFT 251900Z 14006KT CAVOK 17/03 Q1023

Ora: 22:32 (20:32 UTC)

Previsione

Il bollettino è stato emesso 8 ore e 32 minuti fa, alle 12:00 UTC
Previsione valida dal 25 alle 15 UTC al 25 alle 24 UTC
Vento 8 kt da est
Visibilità 10 km o più
nessuna nube inferiore a 1500 m e nessun cumulonembo

TAF: FBFT 251200Z 2515/2524 10008KT CAVOK

Osservazioni e previsioni meteorologiche di più di 4000 aeroporti (messaggi METAR e TAF).

Le stazioni disponibili sono rappresentate dai dischi gialli e rossi sulla carta.

Puntare il mouse per vedere il nome della stazione.

Clicca sopra per visualizzare le osservazioni e previsioni meteorologiche.

Per cambiare la mappa : fare clic sui pulsanti verdi con una croce nera per ingrandire, il pulsante verde con un trattino per diminuire, o sulla freccia verde per le mappe adiacenti.


METAR-TAF: